Time;durP1;ratioP1;P1;durP2;ratioP2;P2;SDS_P1;SDS_P2;PMS_P1;PMS_P2;Temp;Humidity;BMP_temperature;BMP_pressure;BME280_temperature;BME280_humidity;BME280_pressure;Samples;Min_cycle;Max_cycle;Signal;HPM_P1;HPM_P2
2023/07/12 00:01:36;;;;;;;2.55;1.92;;;28.50;48.90;;;;;;4980189;28;20427;-67
2023/07/12 00:04:02;;;;;;;2.42;1.98;;;28.50;48.90;;;;;;4981000;28;20026;-68
2023/07/12 00:06:38;;;;;;;2.70;2.05;;;28.50;49.00;;;;;;4979824;28;20058;-67
2023/07/12 00:09:05;;;;;;;2.60;2.13;;;28.50;48.90;;;;;;4979168;28;20088;-68
2023/07/12 00:11:31;;;;;;;2.80;2.00;;;28.50;49.00;;;;;;4980385;28;20033;-68
2023/07/12 00:13:57;;;;;;;2.50;1.90;;;28.50;49.00;;;;;;4980460;28;20027;-67
2023/07/12 00:16:30;;;;;;;2.85;1.92;;;28.50;48.90;;;;;;4979145;28;20114;-68
2023/07/12 00:18:56;;;;;;;2.83;2.10;;;28.50;48.90;;;;;;4978812;28;20026;-68
2023/07/12 00:21:25;;;;;;;2.50;1.85;;;28.50;48.90;;;;;;4981612;28;20488;-67
2023/07/12 00:23:55;;;;;;;3.03;2.10;;;28.50;48.90;;;;;;4980670;28;20027;-67
2023/07/12 00:26:35;;;;;;;2.90;1.92;;;28.50;48.90;;;;;;4979016;28;20501;-68
2023/07/12 00:29:03;;;;;;;2.72;1.85;;;28.50;48.90;;;;;;4979201;28;20029;-67
2023/07/12 00:31:29;;;;;;;3.70;2.20;;;28.50;48.90;;;;;;4979345;28;20495;-67
2023/07/12 00:33:55;;;;;;;2.78;1.90;;;28.50;48.90;;;;;;4980579;28;20064;-67
2023/07/12 00:36:24;;;;;;;2.47;2.10;;;28.50;48.90;;;;;;4979352;28;20058;-67
2023/07/12 00:38:50;;;;;;;;;;;28.50;48.90;;;;;;4979027;28;20510;-67
2023/07/12 00:41:50;;;;;;;3.40;2.17;;;28.50;48.90;;;;;;4975796;28;19918;-67
2023/07/12 00:44:29;;;;;;;2.55;2.00;;;28.50;48.90;;;;;;4980127;28;20031;-67
2023/07/12 00:46:56;;;;;;;;;;;28.50;48.90;;;;;;4980590;28;20388;-67
2023/07/12 00:49:23;;;;;;;3.28;1.80;;;28.50;48.90;;;;;;4978963;28;19913;-67
2023/07/12 00:52:03;;;;;;;2.47;2.00;;;28.50;48.80;;;;;;4978966;28;20549;-68
2023/07/12 00:54:47;;;;;;;2.53;1.83;;;28.50;48.90;;;;;;4977274;28;20022;-67
2023/07/12 00:57:13;;;;;;;2.47;1.88;;;28.50;48.90;;;;;;4963035;28;20026;-67
2023/07/12 00:59:39;;;;;;;2.40;1.90;;;28.40;48.80;;;;;;4981343;28;20026;-67
2023/07/12 01:02:05;;;;;;;2.85;1.92;;;28.40;48.80;;;;;;4979483;28;20811;-67
2023/07/12 01:04:42;;;;;;;2.50;2.05;;;28.40;48.80;;;;;;4961504;28;20030;-67
2023/07/12 01:07:09;;;;;;;2.70;2.10;;;28.40;48.80;;;;;;4979801;28;20153;-67
2023/07/12 01:09:34;;;;;;;2.65;2.05;;;28.40;48.80;;;;;;4979184;28;20514;-68
2023/07/12 01:12:01;;;;;;;2.72;2.05;;;28.40;48.80;;;;;;4977197;28;20031;-67
2023/07/12 01:14:27;;;;;;;2.92;2.00;;;28.50;48.90;;;;;;4978989;28;20026;-67
2023/07/12 01:17:02;;;;;;;2.78;2.10;;;28.40;48.80;;;;;;4980472;28;20670;-67
2023/07/12 01:19:29;;;;;;;2.65;1.77;;;28.40;48.70;;;;;;4980772;28;20022;-67
2023/07/12 01:21:56;;;;;;;2.90;2.15;;;28.50;48.80;;;;;;4970702;28;20566;-67
2023/07/12 01:24:23;;;;;;;2.78;1.90;;;28.50;48.80;;;;;;4981811;28;20049;-67
2023/07/12 01:26:53;;;;;;;2.45;1.90;;;28.50;48.80;;;;;;4977335;28;20050;-67
2023/07/12 01:29:20;;;;;;;2.70;2.00;;;28.40;48.70;;;;;;4979959;28;20112;-67
2023/07/12 01:31:45;;;;;;;2.78;2.20;;;28.40;48.70;;;;;;4979018;28;20070;-67
2023/07/12 01:34:12;;;;;;;2.88;2.00;;;28.50;48.80;;;;;;4980258;28;20383;-68
2023/07/12 01:36:38;;;;;;;2.35;1.73;;;28.40;48.70;;;;;;4979397;28;20065;-67
2023/07/12 01:39:05;;;;;;;2.92;2.10;;;28.40;48.70;;;;;;4978312;28;20496;-67
2023/07/12 01:41:32;;;;;;;2.22;1.75;;;28.40;48.70;;;;;;4977476;28;20026;-67
2023/07/12 01:43:58;;;;;;;2.67;2.08;;;28.40;48.70;;;;;;4977745;28;20042;-67
2023/07/12 01:46:24;;;;;;;2.53;1.83;;;28.40;48.70;;;;;;4979040;28;20059;-67
2023/07/12 01:48:50;;;;;;;2.72;1.95;;;28.40;48.70;;;;;;4978378;28;20031;-67
2023/07/12 01:51:18;;;;;;;2.83;1.80;;;28.40;48.70;;;;;;4978004;28;20398;-67
2023/07/12 01:53:44;;;;;;;2.47;1.90;;;28.40;48.70;;;;;;4976415;28;20031;-68
2023/07/12 01:56:11;;;;;;;2.15;1.73;;;28.40;48.70;;;;;;4968238;28;20154;-67
2023/07/12 01:58:36;;;;;;;2.40;1.90;;;28.40;48.70;;;;;;4977510;28;20030;-67
2023/07/12 02:01:02;;;;;;;2.42;1.75;;;28.40;48.70;;;;;;4961687;28;20133;-67
2023/07/12 02:03:28;;;;;;;2.25;1.70;;;28.40;48.60;;;;;;4967699;28;20034;-67
2023/07/12 02:05:54;;;;;;;2.35;1.80;;;28.40;48.60;;;;;;4977230;28;20509;-67
2023/07/12 02:08:21;;;;;;;2.72;2.00;;;28.40;48.60;;;;;;4978211;28;20506;-67
2023/07/12 02:10:47;;;;;;;2.38;1.65;;;28.40;48.70;;;;;;4963537;28;20085;-67
2023/07/12 02:13:13;;;;;;;2.55;1.85;;;28.40;48.60;;;;;;4977190;28;20026;-68
2023/07/12 02:15:39;;;;;;;2.42;1.80;;;28.40;48.60;;;;;;4977454;28;20110;-67
2023/07/12 02:18:05;;;;;;;3.35;1.83;;;28.40;48.70;;;;;;4978116;28;20108;-67
2023/07/12 02:20:31;;;;;;;2.20;1.70;;;28.40;48.60;;;;;;4977908;28;20110;-67
2023/07/12 02:22:57;;;;;;;2.20;1.80;;;28.40;48.60;;;;;;4978138;28;20122;-67
2023/07/12 02:25:23;;;;;;;2.28;1.70;;;28.40;48.60;;;;;;4977435;28;20041;-67
2023/07/12 02:27:49;;;;;;;2.63;1.75;;;28.40;48.60;;;;;;4976255;28;20107;-67
2023/07/12 02:30:24;;;;;;;2.45;1.80;;;28.40;48.60;;;;;;4978074;28;20778;-67
2023/07/12 02:32:51;;;;;;;2.40;1.70;;;28.40;48.60;;;;;;4964865;28;20068;-67
2023/07/12 02:35:18;;;;;;;2.10;1.50;;;28.40;48.60;;;;;;4976643;28;20018;-67
2023/07/12 02:37:44;;;;;;;2.00;1.65;;;28.40;48.60;;;;;;4977731;28;20029;-67
2023/07/12 02:40:11;;;;;;;2.05;1.50;;;28.30;48.60;;;;;;4977148;28;20397;-67
2023/07/12 02:42:36;;;;;;;2.08;1.60;;;28.40;48.80;;;;;;4978157;28;20114;-67
2023/07/12 02:45:03;;;;;;;2.10;1.60;;;28.40;48.60;;;;;;4981375;28;20097;-67
2023/07/12 02:47:28;;;;;;;2.33;1.70;;;28.40;48.60;;;;;;4964077;28;20023;-68
2023/07/12 02:49:54;;;;;;;2.15;1.60;;;28.40;48.60;;;;;;4981762;28;20038;-67
2023/07/12 02:52:20;;;;;;;2.63;1.60;;;28.40;48.60;;;;;;4979876;28;20038;-67
2023/07/12 02:54:45;;;;;;;2.72;1.58;;;28.40;48.60;;;;;;4967624;28;20045;-67
2023/07/12 02:57:12;;;;;;;2.03;1.60;;;28.40;48.60;;;;;;4978744;28;20093;-67
2023/07/12 02:59:38;;;;;;;2.55;1.70;;;28.40;48.60;;;;;;4981649;28;20041;-67
2023/07/12 03:02:12;;;;;;;2.10;1.52;;;28.30;48.60;;;;;;4980181;28;20031;-68
2023/07/12 03:04:38;;;;;;;2.47;1.65;;;28.30;48.60;;;;;;4981719;28;20040;-68
2023/07/12 03:07:05;;;;;;;2.05;1.50;;;28.30;48.60;;;;;;4980356;28;20030;-67
2023/07/12 03:09:30;;;;;;;2.20;1.58;;;28.30;48.60;;;;;;4978629;28;20042;-67
2023/07/12 03:11:56;;;;;;;2.50;1.55;;;28.30;48.60;;;;;;4982039;28;20034;-68
2023/07/12 03:14:22;;;;;;;2.05;1.50;;;28.30;48.60;;;;;;4979325;28;20473;-67
2023/07/12 03:16:48;;;;;;;2.20;1.58;;;28.30;48.60;;;;;;4979328;28;20035;-67
2023/07/12 03:19:15;;;;;;;2.25;1.60;;;28.30;48.60;;;;;;4982880;28;20450;-67
2023/07/12 03:21:41;;;;;;;1.52;1.25;;;28.30;48.50;;;;;;4967922;28;20089;-67
2023/07/12 03:24:08;;;;;;;1.90;1.50;;;28.30;48.60;;;;;;4978619;28;20110;-68
2023/07/12 03:26:34;;;;;;;2.35;1.60;;;28.30;48.60;;;;;;4979804;28;20026;-67
2023/07/12 03:29:00;;;;;;;2.50;1.70;;;28.30;49.10;;;;;;4980042;28;20034;-67
2023/07/12 03:31:28;;;;;;;2.08;1.50;;;28.30;48.50;;;;;;4980210;28;20124;-67
2023/07/12 03:33:54;;;;;;;2.53;1.50;;;28.30;48.60;;;;;;4979766;28;20475;-67
2023/07/12 03:36:21;;;;;;;1.95;1.52;;;28.30;48.60;;;;;;4978371;28;20026;-67
2023/07/12 03:38:46;;;;;;;2.00;1.50;;;28.30;48.60;;;;;;4961167;28;20085;-70
2023/07/12 03:41:16;;;;;;;1.60;1.30;;;28.30;48.60;;;;;;4979362;28;20050;-67
2023/07/12 03:43:42;;;;;;;2.08;1.40;;;28.30;48.60;;;;;;4963953;28;20045;-67
2023/07/12 03:46:08;;;;;;;2.70;1.48;;;28.30;49.00;;;;;;4979778;28;20030;-67
2023/07/12 03:48:34;;;;;;;2.00;1.20;;;28.30;49.70;;;;;;4980324;28;20046;-67
2023/07/12 03:51:00;;;;;;;2.10;1.00;;;28.30;50.20;;;;;;4966946;28;20031;-68
2023/07/12 03:53:27;;;;;;;1.60;1.00;;;28.30;50.40;;;;;;4979975;28;20027;-67
2023/07/12 03:55:53;;;;;;;2.00;1.00;;;28.20;50.50;;;;;;4980250;28;20105;-68
2023/07/12 03:58:21;;;;;;;2.42;1.00;;;28.30;50.70;;;;;;4977996;28;20151;-67
2023/07/12 04:00:50;;;;;;;3.28;1.05;;;28.30;50.90;;;;;;4979840;28;20037;-67
2023/07/12 04:03:17;;;;;;;2.75;1.40;;;28.30;51.00;;;;;;4963714;28;20038;-67
2023/07/12 04:05:43;;;;;;;2.45;1.02;;;28.20;50.90;;;;;;4981851;28;20109;-67
2023/07/12 04:08:11;;;;;;;1.67;0.90;;;28.20;51.10;;;;;;4977769;28;20525;-68
2023/07/12 04:10:37;;;;;;;1.52;0.98;;;28.20;51.20;;;;;;4981275;28;20121;-67
2023/07/12 04:13:03;;;;;;;1.90;1.00;;;28.10;51.30;;;;;;4978902;28;20494;-67
2023/07/12 04:15:29;;;;;;;2.33;1.00;;;28.20;51.40;;;;;;4980846;28;20106;-67
2023/07/12 04:17:54;;;;;;;2.30;0.93;;;28.20;51.50;;;;;;4963860;28;20134;-67
2023/07/12 04:20:20;;;;;;;1.83;0.90;;;28.20;51.50;;;;;;4982189;28;20112;-67
2023/07/12 04:22:52;;;;;;;1.63;1.00;;;28.10;51.50;;;;;;4979334;28;20037;-67
2023/07/12 04:25:19;;;;;;;1.58;1.00;;;28.10;51.50;;;;;;4980273;28;20030;-67
2023/07/12 04:27:45;;;;;;;2.38;0.90;;;28.10;51.50;;;;;;4978455;28;20613;-67
2023/07/12 04:30:16;;;;;;;1.58;1.00;;;28.10;51.50;;;;;;4980328;28;20037;-67
2023/07/12 04:32:42;;;;;;;4.85;1.05;;;28.10;51.50;;;;;;4969923;28;20089;-67
2023/07/12 04:35:10;;;;;;;3.20;0.95;;;28.00;51.50;;;;;;4981194;28;20510;-67
2023/07/12 04:37:36;;;;;;;1.35;0.90;;;28.10;51.60;;;;;;4979538;28;20026;-67
2023/07/12 04:40:02;;;;;;;1.98;1.00;;;28.00;52.10;;;;;;4978370;28;20041;-67
2023/07/12 04:42:28;;;;;;;1.13;0.80;;;28.00;51.70;;;;;;4980035;28;20204;-67
2023/07/12 04:44:53;;;;;;;2.90;1.00;;;28.00;51.80;;;;;;4978457;28;20170;-67
2023/07/12 04:47:19;;;;;;;1.85;1.10;;;28.00;51.80;;;;;;4979278;28;20290;-67
2023/07/12 04:49:45;;;;;;;3.92;1.20;;;28.00;51.90;;;;;;4981587;28;20033;-67
2023/07/12 04:52:11;;;;;;;2.85;1.10;;;28.00;52.00;;;;;;4978407;28;20509;-67
2023/07/12 04:54:41;;;;;;;3.15;1.25;;;28.00;52.10;;;;;;4979508;28;20030;-67
2023/07/12 04:57:07;;;;;;;4.53;1.42;;;28.00;52.20;;;;;;4979361;28;20121;-67
2023/07/12 04:59:33;;;;;;;3.88;1.30;;;27.90;52.20;;;;;;4961775;28;20610;-67
2023/07/12 05:01:58;;;;;;;2.10;1.10;;;27.90;52.40;;;;;;4979740;28;20387;-67
2023/07/12 05:04:24;;;;;;;2.88;1.50;;;27.90;52.40;;;;;;4968912;28;20035;-67
2023/07/12 05:06:51;;;;;;;3.55;1.63;;;27.90;52.60;;;;;;4970623;28;20037;-67
2023/07/12 05:09:17;;;;;;;2.72;1.02;;;27.90;52.70;;;;;;4960861;28;20030;-67
2023/07/12 05:11:43;;;;;;;2.33;1.30;;;27.80;52.60;;;;;;4977997;28;20023;-67
2023/07/12 05:14:09;;;;;;;2.95;1.50;;;27.80;52.60;;;;;;4978798;28;20023;-67
2023/07/12 05:16:34;;;;;;;3.80;1.30;;;27.80;52.90;;;;;;4980488;28;20030;-67
2023/07/12 05:19:00;;;;;;;3.20;1.30;;;27.80;52.80;;;;;;4980282;28;20050;-67
2023/07/12 05:21:26;;;;;;;3.05;1.60;;;27.80;53.00;;;;;;4979667;28;20486;-67
2023/07/12 05:23:51;;;;;;;3.40;1.33;;;27.80;53.30;;;;;;4978390;28;20117;-67
2023/07/12 05:26:17;;;;;;;2.50;1.40;;;27.80;53.30;;;;;;4976797;28;20037;-67
2023/07/12 05:28:43;;;;;;;3.08;1.30;;;27.70;53.40;;;;;;4976457;28;20031;-67
2023/07/12 05:31:10;;;;;;;4.10;1.40;;;27.70;53.40;;;;;;4977977;28;20113;-67
2023/07/12 05:33:36;;;;;;;3.35;1.40;;;27.70;53.50;;;;;;4978947;28;20022;-67
2023/07/12 05:36:03;;;;;;;3.72;1.77;;;27.70;53.60;;;;;;4979736;28;20019;-66
2023/07/12 05:38:29;;;;;;;3.55;2.00;;;27.70;54.00;;;;;;4978097;28;20027;-67
2023/07/12 05:40:58;;;;;;;2.95;1.50;;;27.70;54.30;;;;;;4979992;28;20503;-66
2023/07/12 05:43:24;;;;;;;2.85;1.40;;;27.70;54.40;;;;;;4976960;28;20034;-67
2023/07/12 05:45:51;;;;;;;2.95;1.50;;;27.60;54.30;;;;;;4978608;28;20030;-67
2023/07/12 05:48:17;;;;;;;4.22;1.80;;;27.60;54.40;;;;;;4961193;28;20056;-67
2023/07/12 05:50:42;;;;;;;6.63;1.88;;;27.60;54.60;;;;;;4979012;28;20479;-67
2023/07/12 05:53:08;;;;;;;3.53;1.80;;;27.60;54.60;;;;;;4978122;28;20046;-67
2023/07/12 05:55:34;;;;;;;4.45;2.00;;;27.60;54.60;;;;;;4978003;28;20019;-67
2023/07/12 05:58:01;;;;;;;4.53;2.03;;;27.60;54.70;;;;;;4977968;28;20109;-67
2023/07/12 06:00:27;;;;;;;4.57;1.85;;;27.60;54.90;;;;;;4977778;28;20519;-67
2023/07/12 06:02:53;;;;;;;5.25;1.80;;;27.50;55.10;;;;;;4977987;28;20081;-67
2023/07/12 06:05:19;;;;;;;4.07;1.90;;;27.50;55.00;;;;;;4979843;28;20122;-67
2023/07/12 06:07:45;;;;;;;5.10;2.00;;;27.50;55.30;;;;;;4977257;28;20034;-67
2023/07/12 06:10:11;;;;;;;5.45;2.20;;;27.50;55.50;;;;;;4979883;28;20527;-67
2023/07/12 06:12:38;;;;;;;4.93;2.50;;;27.50;55.60;;;;;;4975689;28;20045;-67
2023/07/12 06:15:04;;;;;;;4.00;2.13;;;27.40;56.00;;;;;;4975953;28;20424;-67
2023/07/12 06:17:30;;;;;;;5.32;2.10;;;27.40;56.00;;;;;;4982611;28;20501;-69
2023/07/12 06:19:55;;;;;;;4.43;2.00;;;27.40;56.80;;;;;;4986581;28;20019;-68
2023/07/12 06:22:21;;;;;;;6.28;2.15;;;27.30;56.80;;;;;;4986176;28;20037;-67
2023/07/12 06:24:47;;;;;;;5.47;2.20;;;27.40;56.80;;;;;;4971962;28;20035;-68
2023/07/12 06:27:13;;;;;;;6.63;1.95;;;27.30;56.80;;;;;;4971390;28;20076;-68
2023/07/12 06:29:42;;;;;;;4.18;2.10;;;27.40;56.70;;;;;;4989372;28;20031;-67
2023/07/12 06:32:11;;;;;;;5.25;2.40;;;27.40;56.50;;;;;;4984823;28;20197;-69
2023/07/12 06:34:36;;;;;;;4.18;2.05;;;27.40;56.40;;;;;;4988281;28;20027;-68
2023/07/12 06:37:02;;;;;;;5.28;2.28;;;27.40;56.00;;;;;;4985895;28;20041;-69
2023/07/12 06:39:29;;;;;;;4.10;1.90;;;27.40;55.80;;;;;;4968071;28;20082;-72
2023/07/12 06:41:54;;;;;;;4.97;2.00;;;27.40;56.80;;;;;;4982633;28;20085;-71
2023/07/12 06:44:20;;;;;;;4.55;1.90;;;27.50;56.60;;;;;;4979566;28;20023;-70
2023/07/12 06:46:45;;;;;;;5.63;2.17;;;27.50;56.20;;;;;;4982358;28;20105;-69
2023/07/12 06:49:13;;;;;;;4.55;2.10;;;27.50;56.20;;;;;;4981211;28;20026;-70
2023/07/12 06:51:39;;;;;;;3.83;1.80;;;27.50;56.10;;;;;;4969834;28;20034;-69
2023/07/12 06:54:05;;;;;;;5.35;1.95;;;27.50;55.80;;;;;;4981780;28;20026;-69
2023/07/12 06:56:30;;;;;;;3.65;1.80;;;27.50;56.30;;;;;;4980575;28;20027;-68
2023/07/12 06:58:56;;;;;;;4.32;2.00;;;27.60;55.80;;;;;;4966552;28;20073;-67
2023/07/12 07:01:21;;;;;;;5.30;1.88;;;27.60;55.60;;;;;;4982330;28;20376;-69
2023/07/12 07:03:47;;;;;;;3.47;1.70;;;27.60;55.40;;;;;;4981214;28;20034;-69
2023/07/12 07:06:13;;;;;;;4.95;2.00;;;27.60;55.20;;;;;;4966927;28;20430;-69
2023/07/12 07:08:38;;;;;;;3.15;1.67;;;27.60;55.10;;;;;;4987910;28;20053;-69
2023/07/12 07:11:04;;;;;;;3.78;1.77;;;27.60;54.90;;;;;;4990377;28;20467;-70
2023/07/12 07:13:29;;;;;;;4.45;1.90;;;27.70;55.10;;;;;;4981352;28;20617;-66
2023/07/12 07:15:55;;;;;;;3.90;2.00;;;27.70;55.20;;;;;;4984031;28;20034;-68
2023/07/12 07:18:21;;;;;;;3.78;1.88;;;27.70;55.20;;;;;;4981833;28;20022;-68
2023/07/12 07:20:47;;;;;;;3.33;1.75;;;27.70;54.90;;;;;;4981090;28;20760;-66
2023/07/12 07:23:12;;;;;;;2.78;1.60;;;27.80;54.80;;;;;;4982876;28;20035;-68
2023/07/12 07:25:38;;;;;;;3.53;1.85;;;27.80;54.60;;;;;;4985713;28;20942;-71
2023/07/12 07:28:04;;;;;;;3.13;1.70;;;27.80;54.50;;;;;;4982826;28;20022;-67
2023/07/12 07:30:31;;;;;;;3.53;1.60;;;27.80;54.30;;;;;;4980860;28;20066;-68
2023/07/12 07:32:58;;;;;;;3.95;1.90;;;27.80;54.40;;;;;;4981468;28;20138;-70
2023/07/12 07:35:24;;;;;;;3.60;1.83;;;27.90;54.70;;;;;;4980064;28;20814;-71
2023/07/12 07:37:51;;;;;;;3.55;1.75;;;27.90;54.80;;;;;;4979759;28;20157;-69
2023/07/12 07:40:17;;;;;;;2.92;1.70;;;28.00;54.50;;;;;;4981055;28;20029;-68
2023/07/12 07:42:43;;;;;;;4.32;2.00;;;28.00;54.30;;;;;;4965527;28;20125;-68
2023/07/12 07:45:10;;;;;;;3.80;1.80;;;28.00;54.10;;;;;;4978249;28;20627;-69
2023/07/12 07:47:37;;;;;;;2.63;1.50;;;28.00;54.10;;;;;;4991094;28;20093;-68
2023/07/12 07:50:03;;;;;;;2.97;1.70;;;28.00;53.80;;;;;;4987862;28;20463;-68
2023/07/12 07:52:29;;;;;;;3.47;1.50;;;28.10;53.90;;;;;;4980584;28;20490;-70
2023/07/12 07:54:54;;;;;;;3.90;1.70;;;28.10;54.20;;;;;;4980989;28;20061;-68
2023/07/12 07:57:20;;;;;;;4.38;1.90;;;28.10;54.00;;;;;;4978965;28;20026;-72
2023/07/12 07:59:46;;;;;;;2.60;1.60;;;28.10;54.00;;;;;;4960333;28;20049;-68
2023/07/12 08:02:11;;;;;;;4.80;1.73;;;28.10;54.10;;;;;;4981425;28;20439;-72
2023/07/12 08:04:37;;;;;;;4.45;1.80;;;28.10;54.00;;;;;;4979267;28;20483;-68
2023/07/12 08:07:05;;;;;;;2.90;1.58;;;28.20;53.90;;;;;;4979757;28;20034;-71
2023/07/12 08:09:33;;;;;;;2.70;1.70;;;28.20;53.70;;;;;;4979174;28;20486;-71
2023/07/12 08:11:58;;;;;;;3.13;1.80;;;28.20;53.60;;;;;;4980753;28;20038;-71
2023/07/12 08:14:24;;;;;;;2.78;1.40;;;28.20;53.60;;;;;;4978874;28;20102;-69
2023/07/12 08:16:49;;;;;;;4.22;1.50;;;28.20;53.60;;;;;;4979664;28;20030;-68
2023/07/12 08:19:15;;;;;;;5.35;1.60;;;28.20;53.50;;;;;;4981769;28;20096;-68
2023/07/12 08:21:41;;;;;;;4.28;1.73;;;28.20;53.60;;;;;;4981836;28;20109;-68
2023/07/12 08:24:07;;;;;;;3.25;1.77;;;28.20;53.40;;;;;;4964197;28;20398;-67
2023/07/12 08:26:32;;;;;;;4.93;1.63;;;28.30;52.90;;;;;;4969860;28;20027;-67
2023/07/12 08:28:58;;;;;;;3.88;1.52;;;28.30;52.70;;;;;;4978566;28;20038;-68
2023/07/12 08:31:23;;;;;;;3.05;1.20;;;28.30;52.60;;;;;;4979847;28;20038;-67
2023/07/12 08:33:49;;;;;;;4.45;1.75;;;28.30;52.50;;;;;;4979787;28;20386;-68
2023/07/12 08:36:16;;;;;;;3.17;1.50;;;28.30;52.50;;;;;;4983039;28;20037;-68
2023/07/12 08:38:42;;;;;;;3.08;1.65;;;28.30;52.50;;;;;;4978384;28;20078;-67
2023/07/12 08:41:17;;;;;;;2.67;1.40;;;28.30;52.40;;;;;;4980819;28;20482;-68
2023/07/12 08:43:44;;;;;;;3.33;1.60;;;28.30;52.30;;;;;;4979405;28;20022;-68
2023/07/12 08:46:25;;;;;;;3.33;1.73;;;28.30;52.30;;;;;;4977788;28;20026;-68
2023/07/12 08:48:58;;;;;;;2.75;1.48;;;28.30;52.20;;;;;;4961909;28;20050;-68
2023/07/12 08:51:37;;;;;;;3.60;1.50;;;28.30;52.20;;;;;;4980555;28;20027;-70
2023/07/12 08:54:03;;;;;;;3.28;1.70;;;28.30;52.50;;;;;;4979467;28;20030;-69
2023/07/12 08:56:28;;;;;;;2.47;1.40;;;28.30;52.40;;;;;;4980867;28;20039;-69
2023/07/12 08:58:54;;;;;;;3.25;1.42;;;28.40;52.40;;;;;;4978609;28;20041;-67
2023/07/12 09:01:32;;;;;;;2.50;1.45;;;28.40;52.30;;;;;;4960885;28;20040;-69
2023/07/12 09:03:58;;;;;;;3.50;1.88;;;28.40;52.60;;;;;;4980136;28;20041;-69
2023/07/12 09:06:24;;;;;;;3.25;1.50;;;28.40;52.60;;;;;;4979231;28;20034;-68
2023/07/12 09:08:53;;;;;;;2.78;1.50;;;28.40;52.60;;;;;;4978708;28;20173;-68
2023/07/12 09:11:27;;;;;;;2.55;1.40;;;28.40;52.50;;;;;;4978064;28;20045;-69
2023/07/12 09:13:56;;;;;;;4.65;1.60;;;28.40;52.40;;;;;;4977861;28;20026;-68
2023/07/12 09:16:32;;;;;;;3.20;1.70;;;28.50;52.50;;;;;;4978130;28;20474;-68
2023/07/12 09:19:10;;;;;;;2.95;1.40;;;28.50;52.30;;;;;;4978029;28;20050;-69
2023/07/12 09:21:38;;;;;;;3.58;1.70;;;28.50;52.30;;;;;;4969094;28;20027;-69
2023/07/12 09:24:12;;;;;;;2.47;1.42;;;28.50;52.40;;;;;;4980290;28;20030;-68
2023/07/12 09:26:38;;;;;;;2.70;1.40;;;28.50;52.20;;;;;;4978031;28;20704;-68
2023/07/12 09:29:15;;;;;;;2.80;1.60;;;28.50;52.00;;;;;;4978845;28;20071;-68
2023/07/12 09:31:43;;;;;;;2.53;1.50;;;28.50;51.80;;;;;;4976511;28;20066;-67
2023/07/12 09:34:39;;;;;;;2.75;1.42;;;28.50;51.80;;;;;;4976970;28;20454;-68
2023/07/12 09:37:16;;;;;;;3.10;1.52;;;28.50;52.40;;;;;;4969081;28;20038;-69
2023/07/12 09:39:59;;;;;;;3.70;1.50;;;28.50;52.30;;;;;;4977758;28;20038;-66
2023/07/12 09:42:26;;;;;;;3.45;1.58;;;28.50;52.60;;;;;;4978724;28;20027;-68
2023/07/12 09:44:52;;;;;;;2.33;1.40;;;28.60;52.00;;;;;;4977567;28;20030;-68
2023/07/12 09:47:42;;;;;;;2.40;1.40;;;28.60;51.90;;;;;;4977426;28;20387;-67
2023/07/12 09:50:45;;;;;;;2.42;1.42;;;28.60;51.80;;;;;;4964493;28;20043;-69
2023/07/12 09:53:22;;;;;;;3.72;1.20;;;28.60;51.80;;;;;;4967883;28;20070;-71
2023/07/12 09:56:00;;;;;;;2.08;1.13;;;28.60;51.80;;;;;;4981383;28;20023;-69
2023/07/12 09:58:43;;;;;;;2.42;1.35;;;28.60;52.00;;;;;;4983610;28;20037;-69
2023/07/12 10:01:37;;;;;;;2.72;1.30;;;28.60;52.00;;;;;;4982645;28;20031;-70
2023/07/12 10:04:28;;;;;;;2.90;1.30;;;28.60;51.90;;;;;;4984177;28;20507;-69
2023/07/12 10:06:55;;;;;;;2.10;1.13;;;28.70;51.80;;;;;;4982994;28;20037;-70
2023/07/12 10:09:32;;;;;;;2.70;1.50;;;28.70;51.80;;;;;;4966467;28;20113;-68
2023/07/12 10:12:07;;;;;;;2.13;1.27;;;28.70;51.90;;;;;;4982200;28;20513;-67
2023/07/12 10:14:40;;;;;;;1.88;1.20;;;28.70;51.90;;;;;;4983271;28;20031;-68
2023/07/12 10:17:16;;;;;;;3.05;1.50;;;28.70;51.90;;;;;;4982453;28;20165;-69
2023/07/12 10:19:42;;;;;;;2.25;1.30;;;28.80;52.00;;;;;;4981024;28;20545;-69
2023/07/12 10:22:41;;;;;;;2.20;1.30;;;28.80;52.00;;;;;;4982701;28;20101;-69
2023/07/12 10:25:17;;;;;;;;;;;28.80;51.70;;;;;;4982159;28;20045;-71
2023/07/12 10:27:47;;;;;;;3.03;1.35;;;28.80;51.70;;;;;;4982108;28;19906;-68
2023/07/12 10:30:18;;;;;;;3.67;1.30;;;28.80;51.80;;;;;;4980418;28;20022;-68
2023/07/12 10:32:48;;;;;;;2.90;1.50;;;28.90;51.90;;;;;;4980705;28;20065;-69
2023/07/12 10:35:26;;;;;;;2.53;1.35;;;28.80;51.80;;;;;;4980281;28;20033;-68
2023/07/12 10:37:58;;;;;;;2.95;1.20;;;28.90;51.80;;;;;;4981594;28;20019;-69
2023/07/12 10:40:35;;;;;;;2.22;1.30;;;28.80;51.60;;;;;;4966851;28;20022;-68
2023/07/12 10:43:08;;;;;;;3.30;1.65;;;28.80;51.70;;;;;;4972857;28;20037;-68
2023/07/12 10:45:37;;;;;;;2.38;1.30;;;28.90;51.80;;;;;;4981619;28;20035;-68
2023/07/12 10:48:03;;;;;;;;;;;28.90;51.70;;;;;;4982560;28;20619;-68
2023/07/12 10:50:37;;;;;;;2.65;1.40;;;28.90;51.60;;;;;;4980598;28;20000;-69
2023/07/12 10:53:18;;;;;;;3.28;1.15;;;28.90;51.50;;;;;;4984585;28;20023;-71
2023/07/12 10:56:08;;;;;;;1.60;1.10;;;28.90;52.00;;;;;;4982926;28;20034;-68
2023/07/12 10:58:48;;;;;;;2.78;1.42;;;28.90;52.00;;;;;;4982219;28;20441;-68
2023/07/12 11:01:41;;;;;;;4.38;1.30;;;29.00;51.90;;;;;;4979480;28;20031;-67
2023/07/12 11:04:24;;;;;;;1.90;1.20;;;29.00;51.90;;;;;;4972812;28;20355;-68
2023/07/12 11:07:01;;;;;;;2.20;1.30;;;29.00;51.70;;;;;;4983718;28;20197;-69
2023/07/12 11:09:47;;;;;;;2.20;1.20;;;29.00;51.90;;;;;;4980903;28;20508;-68
2023/07/12 11:12:27;;;;;;;2.45;1.20;;;29.00;51.80;;;;;;4965120;28;20442;-69
2023/07/12 11:15:04;;;;;;;2.03;1.23;;;29.00;51.60;;;;;;4982408;28;20134;-69
2023/07/12 11:18:01;;;;;;;3.53;1.30;;;29.00;51.60;;;;;;4978118;28;20026;-67
2023/07/12 11:20:30;;;;;;;2.30;1.40;;;29.00;51.50;;;;;;4966020;28;20084;-70
2023/07/12 11:23:05;;;;;;;2.47;1.30;;;29.10;51.60;;;;;;4980902;28;20022;-70
2023/07/12 11:25:38;;;;;;;2.13;1.30;;;29.10;51.90;;;;;;4981556;28;20038;-70
2023/07/12 11:28:28;;;;;;;2.17;1.40;;;29.10;51.70;;;;;;4966110;28;20060;-72
2023/07/12 11:31:18;;;;;;;2.60;1.30;;;29.10;51.70;;;;;;4970115;28;20046;-68
2023/07/12 11:34:10;;;;;;;2.00;1.30;;;29.10;52.10;;;;;;4980062;28;20065;-70
2023/07/12 11:36:36;;;;;;;2.05;1.30;;;29.10;52.50;;;;;;4979006;28;20041;-68
2023/07/12 11:39:11;;;;;;;2.92;1.30;;;29.10;51.90;;;;;;4982516;28;20088;-72
2023/07/12 11:41:39;;;;;;;2.58;1.35;;;29.10;52.00;;;;;;4982550;28;20081;-68
2023/07/12 11:44:07;;;;;;;2.88;1.23;;;29.10;51.90;;;;;;4981512;28;20463;-68
2023/07/12 11:46:34;;;;;;;2.67;1.35;;;29.10;51.80;;;;;;4979694;28;20498;-70
2023/07/12 11:49:15;;;;;;;2.30;1.30;;;29.10;52.00;;;;;;4981974;28;20030;-69
2023/07/12 11:51:44;;;;;;;2.80;1.50;;;29.10;52.00;;;;;;4981389;28;20381;-68
2023/07/12 11:54:34;;;;;;;2.42;1.48;;;29.20;52.20;;;;;;4981220;28;20030;-71
2023/07/12 11:57:01;;;;;;;2.67;1.60;;;29.10;52.00;;;;;;4979392;28;20058;-70
2023/07/12 11:59:29;;;;;;;2.50;1.45;;;29.20;52.00;;;;;;4970040;28;20076;-70
2023/07/12 12:01:55;;;;;;;1.85;1.23;;;29.20;52.20;;;;;;4976611;28;20450;-68
2023/07/12 12:04:30;;;;;;;2.53;1.30;;;29.20;51.90;;;;;;4981424;28;20096;-68
2023/07/12 12:07:12;;;;;;;1.48;1.15;;;29.20;51.70;;;;;;4978143;28;20150;-67
2023/07/12 12:09:38;;;;;;;1.98;1.30;;;29.30;51.70;;;;;;4964319;28;20439;-68
2023/07/12 12:12:07;;;;;;;1.92;1.10;;;29.20;51.60;;;;;;4980184;28;20117;-69
2023/07/12 12:14:38;;;;;;;;;;;29.20;51.60;;;;;;4979866;28;20463;-69
2023/07/12 12:17:11;;;;;;;2.03;1.30;;;29.20;51.50;;;;;;4978989;28;20334;-69
2023/07/12 12:19:37;;;;;;;1.85;1.08;;;29.20;51.50;;;;;;4980104;28;20953;-69
2023/07/12 12:22:11;;;;;;;2.65;1.40;;;29.30;51.50;;;;;;4962275;28;20038;-69
2023/07/12 12:24:49;;;;;;;2.60;1.58;;;29.30;51.60;;;;;;4978788;28;20081;-71
2023/07/12 12:27:18;;;;;;;3.15;1.60;;;29.30;51.50;;;;;;4968859;28;20367;-68
2023/07/12 12:29:44;;;;;;;3.65;1.75;;;29.30;51.50;;;;;;4980497;28;20026;-70
2023/07/12 12:32:16;;;;;;;3.35;1.60;;;29.30;51.60;;;;;;4962704;28;20470;-70
2023/07/12 12:34:47;;;;;;;3.78;1.70;;;29.30;51.50;;;;;;4979836;28;20027;-70
2023/07/12 12:37:29;;;;;;;2.65;1.58;;;29.30;51.50;;;;;;4979922;28;20145;-68
2023/07/12 12:40:17;;;;;;;2.33;1.55;;;29.30;51.30;;;;;;4980910;28;20025;-68
2023/07/12 12:42:52;;;;;;;5.80;1.50;;;29.30;51.20;;;;;;4980241;28;20527;-68
2023/07/12 12:45:18;;;;;;;3.58;1.85;;;29.30;51.40;;;;;;4983271;28;20049;-68
2023/07/12 12:47:45;;;;;;;3.60;1.63;;;29.30;51.30;;;;;;4976581;28;20039;-69
2023/07/12 12:50:18;;;;;;;2.60;1.50;;;29.40;51.10;;;;;;4981605;28;20541;-67
2023/07/12 12:52:44;;;;;;;2.20;1.38;;;29.40;51.30;;;;;;4971624;28;20037;-67
2023/07/12 12:55:11;;;;;;;2.63;1.40;;;29.40;51.30;;;;;;4985510;28;20022;-68
2023/07/12 12:57:39;;;;;;;2.75;1.40;;;29.40;51.20;;;;;;4969542;28;20565;-69
2023/07/12 13:00:19;;;;;;;3.58;1.38;;;29.40;51.10;;;;;;4984055;28;20030;-69